createdAt,value
2023-01-01T00:01:43.272Z,6.70
2023-01-01T00:04:15.422Z,6.30
2023-01-01T00:06:42.713Z,7.23
2023-01-01T00:09:28.235Z,6.27
2023-01-01T00:11:54.883Z,6.30
2023-01-01T00:14:21.656Z,6.10
2023-01-01T00:16:48.658Z,6.20
2023-01-01T00:19:15.261Z,5.40
2023-01-01T00:21:42.507Z,5.90
2023-01-01T00:24:09.562Z,6.20
2023-01-01T00:26:36.136Z,6.17
2023-01-01T00:29:03.111Z,6.23
2023-01-01T00:31:30.017Z,6.47
2023-01-01T00:33:57.143Z,5.40
2023-01-01T00:36:25.533Z,6.27
2023-01-01T00:38:53.198Z,6.23
2023-01-01T00:41:19.958Z,5.80
2023-01-01T00:43:46.823Z,6.50
2023-01-01T00:46:14.195Z,6.43
2023-01-01T00:48:40.943Z,6.03
2023-01-01T00:51:08.148Z,6.83
2023-01-01T00:53:35.089Z,6.50
2023-01-01T00:56:01.853Z,5.07
2023-01-01T00:58:28.645Z,6.13
2023-01-01T01:00:55.528Z,6.37
2023-01-01T01:03:28.605Z,5.53
2023-01-01T01:06:02.880Z,5.70
2023-01-01T01:08:32.033Z,5.90
2023-01-01T01:11:11.388Z,5.43
2023-01-01T01:13:39.076Z,5.13
2023-01-01T01:16:33.530Z,5.50
2023-01-01T01:19:02.890Z,5.10
2023-01-01T01:21:31.255Z,5.63
2023-01-01T01:24:00.217Z,5.10
2023-01-01T01:26:29.930Z,5.23
2023-01-01T01:28:57.183Z,5.87
2023-01-01T01:31:26.622Z,5.00
2023-01-01T01:33:53.407Z,5.43
2023-01-01T01:36:21.596Z,5.40
2023-01-01T01:38:48.499Z,5.37
2023-01-01T01:41:27.433Z,5.87
2023-01-01T01:44:03.951Z,5.40
2023-01-01T01:46:36.277Z,4.87
2023-01-01T01:49:10.189Z,5.40
2023-01-01T01:51:40.133Z,5.77
2023-01-01T01:54:15.171Z,5.20
2023-01-01T01:56:52.509Z,5.23
2023-01-01T01:59:21.097Z,5.20
2023-01-01T02:01:47.790Z,4.63
2023-01-01T02:04:14.609Z,4.97
2023-01-01T02:06:41.248Z,4.60
2023-01-01T02:09:08.843Z,5.87
2023-01-01T02:11:35.455Z,5.07
2023-01-01T02:14:03.393Z,4.90
2023-01-01T02:16:48.524Z,5.23
2023-01-01T02:19:52.777Z,6.67
2023-01-01T02:22:52.706Z,6.30
2023-01-01T02:25:46.853Z,5.50
2023-01-01T02:28:36.671Z,4.97
2023-01-01T02:31:04.537Z,5.10
2023-01-01T02:33:32.012Z,5.17
2023-01-01T02:36:02.467Z,5.87
2023-01-01T02:38:44.093Z,5.70
2023-01-01T02:41:14.118Z,5.07
2023-01-01T02:43:42.248Z,4.53
2023-01-01T02:46:11.315Z,5.40
2023-01-01T02:48:43.182Z,5.03
2023-01-01T02:51:28.799Z,5.13
2023-01-01T02:54:05.514Z,5.73
2023-01-01T02:56:50.809Z,5.00
2023-01-01T02:59:50.436Z,5.47
2023-01-01T03:02:31.532Z,4.73
2023-01-01T03:05:18.877Z,4.80
2023-01-01T03:08:01.776Z,5.77
2023-01-01T03:10:43.656Z,5.37
2023-01-01T03:13:21.053Z,5.17
2023-01-01T03:16:00.018Z,5.43
2023-01-01T03:18:37.474Z,5.60
2023-01-01T03:21:06.333Z,5.40
2023-01-01T03:23:47.838Z,5.90
2023-01-01T03:26:20.205Z,5.30
2023-01-01T03:28:53.942Z,5.00
2023-01-01T03:31:25.789Z,4.80
2023-01-01T03:34:02.860Z,4.30
2023-01-01T03:36:36.906Z,4.57
2023-01-01T03:39:13.092Z,5.00
2023-01-01T03:41:49.882Z,5.03
2023-01-01T03:44:27.544Z,5.00
2023-01-01T03:46:54.613Z,4.50
2023-01-01T03:49:21.967Z,4.60
2023-01-01T03:52:06.420Z,5.37
2023-01-01T03:54:53.637Z,4.20
2023-01-01T03:57:35.605Z,4.53
2023-01-01T04:00:18.903Z,5.07
2023-01-01T04:03:14.774Z,4.83
2023-01-01T04:05:43.307Z,4.40
2023-01-01T04:08:11.922Z,4.80
2023-01-01T04:10:46.323Z,5.63
2023-01-01T04:13:13.969Z,4.63
2023-01-01T04:15:40.750Z,4.60
2023-01-01T04:18:08.087Z,5.13
2023-01-01T04:20:34.739Z,4.93
2023-01-01T04:23:02.112Z,5.50
2023-01-01T04:25:29.955Z,5.07
2023-01-01T04:27:58.154Z,4.83
2023-01-01T04:30:25.192Z,5.00
2023-01-01T04:32:51.900Z,4.63
2023-01-01T04:35:18.551Z,4.60
2023-01-01T04:37:46.205Z,4.77
2023-01-01T04:40:14.475Z,4.30
2023-01-01T04:42:41.643Z,5.30
2023-01-01T04:45:08.840Z,4.70
2023-01-01T04:47:35.469Z,4.70
2023-01-01T04:50:02.232Z,5.03
2023-01-01T04:52:28.923Z,5.00
2023-01-01T04:54:55.579Z,5.17
2023-01-01T04:57:22.128Z,4.57
2023-01-01T04:59:48.711Z,5.23
2023-01-01T05:02:15.482Z,5.37
2023-01-01T05:04:42.217Z,4.93
2023-01-01T05:07:08.931Z,4.93
2023-01-01T05:09:35.834Z,4.73
2023-01-01T05:12:02.645Z,4.93
2023-01-01T05:14:29.243Z,4.17
2023-01-01T05:16:55.926Z,5.23
2023-01-01T05:19:22.618Z,5.37
2023-01-01T05:21:49.246Z,5.13
2023-01-01T05:24:15.994Z,4.70
2023-01-01T05:26:44.495Z,4.23
2023-01-01T05:29:16.555Z,4.60
2023-01-01T05:31:45.302Z,5.20
2023-01-01T05:34:12.103Z,5.17
2023-01-01T05:36:39.484Z,5.23
2023-01-01T05:39:12.345Z,4.83
2023-01-01T05:41:40.292Z,5.53
2023-01-01T05:44:09.192Z,5.37
2023-01-01T05:46:36.146Z,6.13
2023-01-01T05:49:03.068Z,6.30
2023-01-01T05:53:59.117Z,5.93
2023-01-01T05:56:27.060Z,5.33
2023-01-01T05:58:54.454Z,6.47
2023-01-01T06:01:27.390Z,6.37
2023-01-01T06:03:55.694Z,5.40
2023-01-01T06:06:25.741Z,5.17
2023-01-01T06:08:57.907Z,5.97
2023-01-01T06:11:25.513Z,5.67
2023-01-01T06:13:54.113Z,6.23
2023-01-01T06:16:21.062Z,6.10
2023-01-01T06:18:47.853Z,6.33
2023-01-01T06:21:17.314Z,5.70
2023-01-01T06:23:44.613Z,6.07
2023-01-01T06:26:25.530Z,6.07
2023-01-01T06:28:52.927Z,6.50
2023-01-01T06:31:21.605Z,5.47
2023-01-01T06:33:49.110Z,5.60
2023-01-01T06:36:18.358Z,5.63
2023-01-01T06:38:47.418Z,5.50
2023-01-01T06:41:18.867Z,5.63
2023-01-01T06:43:46.407Z,4.63
2023-01-01T06:46:45.778Z,5.00
2023-01-01T06:49:13.175Z,4.90
2023-01-01T06:51:41.778Z,5.03
2023-01-01T06:54:09.272Z,4.87
2023-01-01T06:56:36.644Z,5.53
2023-01-01T06:59:04.040Z,4.53
2023-01-01T07:01:32.682Z,5.07
2023-01-01T07:04:01.877Z,4.77
2023-01-01T07:06:30.854Z,4.20
2023-01-01T07:08:57.903Z,3.93
2023-01-01T07:11:25.265Z,3.80
2023-01-01T07:13:51.826Z,3.37
2023-01-01T07:16:18.775Z,4.30
2023-01-01T07:18:45.982Z,4.30
2023-01-01T07:21:45.350Z,3.93
2023-01-01T07:24:15.932Z,4.43
2023-01-01T07:26:42.562Z,4.03
2023-01-01T07:29:09.615Z,4.57
2023-01-01T07:31:38.226Z,4.60
2023-01-01T07:34:06.264Z,3.83
2023-01-01T07:36:33.475Z,3.90
2023-01-01T07:39:00.165Z,4.13
2023-01-01T07:41:27.025Z,4.33
2023-01-01T07:43:53.629Z,4.27
2023-01-01T07:46:20.578Z,3.90
2023-01-01T07:48:47.429Z,3.80
2023-01-01T07:51:14.143Z,4.30
2023-01-01T07:53:40.873Z,4.80
2023-01-01T07:56:08.631Z,4.03
2023-01-01T07:58:35.365Z,4.60
2023-01-01T08:01:02.029Z,4.50
2023-01-01T08:03:28.717Z,4.20
2023-01-01T08:05:55.527Z,3.93
2023-01-01T08:08:22.406Z,3.93
2023-01-01T08:10:48.960Z,5.32
2023-01-01T08:13:15.495Z,7.80
2023-01-01T08:15:42.188Z,6.87
2023-01-01T08:18:09.278Z,8.30
2023-01-01T08:20:36.070Z,9.23
2023-01-01T08:23:07.133Z,9.73
2023-01-01T08:25:34.404Z,8.87
2023-01-01T08:28:00.959Z,10.10
2023-01-01T08:30:27.672Z,9.13
2023-01-01T08:32:54.250Z,11.37
2023-01-01T08:35:20.995Z,10.23
2023-01-01T08:37:47.574Z,12.73
2023-01-01T08:40:14.468Z,11.40
2023-01-01T08:42:41.043Z,10.73
2023-01-01T08:45:08.271Z,11.47
2023-01-01T08:47:34.813Z,10.17
2023-01-01T08:50:01.545Z,10.50
2023-01-01T08:52:28.186Z,9.70
2023-01-01T08:54:54.758Z,9.57
2023-01-01T08:57:21.504Z,10.77
2023-01-01T08:59:48.062Z,10.83
2023-01-01T09:02:14.828Z,10.13
2023-01-01T09:04:41.824Z,9.70
2023-01-01T09:07:08.561Z,9.03
2023-01-01T09:09:35.236Z,10.77
2023-01-01T09:12:06.202Z,9.40
2023-01-01T09:14:34.064Z,8.60
2023-01-01T09:17:01.126Z,8.00
2023-01-01T09:19:28.461Z,7.03
2023-01-01T09:21:55.060Z,5.90
2023-01-01T09:24:21.771Z,6.03
2023-01-01T09:26:48.649Z,6.27
2023-01-01T09:29:20.737Z,5.93
2023-01-01T09:31:50.748Z,6.40
2023-01-01T09:34:18.065Z,5.50
2023-01-01T09:36:45.750Z,4.57
2023-01-01T09:39:16.089Z,4.50
2023-01-01T09:41:48.578Z,4.70
2023-01-01T10:25:03.872Z,5.20
2023-01-01T10:27:44.863Z,4.50
2023-01-01T10:30:20.687Z,5.10
2023-01-01T10:32:55.238Z,6.20
2023-01-01T10:35:31.458Z,5.43
2023-01-01T10:38:03.509Z,5.30
2023-01-01T10:40:31.023Z,4.63
2023-01-01T10:43:00.227Z,5.00
2023-01-01T10:45:31.979Z,5.03
2023-01-01T10:48:18.701Z,5.10
2023-01-01T10:50:51.754Z,4.00
2023-01-01T10:53:29.621Z,4.80
2023-01-01T10:56:21.164Z,5.00
2023-01-01T10:58:58.899Z,4.60
2023-01-01T11:01:28.629Z,4.07
2023-01-01T11:03:55.232Z,4.53
2023-01-01T11:06:26.912Z,4.30
2023-01-01T11:08:56.265Z,3.50
2023-01-01T11:11:32.001Z,3.40
2023-01-01T11:14:01.425Z,3.50
2023-01-01T11:16:29.273Z,7.63
2023-01-01T11:19:04.785Z,3.50
2023-01-01T11:21:32.415Z,3.20
2023-01-01T11:24:32.706Z,3.07
2023-01-01T11:27:23.607Z,2.93
2023-01-01T11:29:54.903Z,2.90
2023-01-01T11:32:28.309Z,5.97
2023-01-01T11:35:01.903Z,3.80
2023-01-01T11:37:39.477Z,8.93
2023-01-01T11:40:24.190Z,5.00
2023-01-01T11:42:58.080Z,6.23
2023-01-01T11:45:32.934Z,3.40
2023-01-01T11:48:08.555Z,2.80
2023-01-01T11:50:38.808Z,2.77
2023-01-01T11:53:23.308Z,2.77
2023-01-01T11:55:55.083Z,2.70
2023-01-01T11:58:41.846Z,2.60
2023-01-01T12:01:31.791Z,2.67
2023-01-01T12:04:09.174Z,2.50
2023-01-01T12:06:38.804Z,2.50
2023-01-01T12:09:18.264Z,2.30
2023-01-01T12:11:52.959Z,2.60
2023-01-01T12:14:35.540Z,2.60
2023-01-01T12:17:07.482Z,2.60
2023-01-01T12:19:42.390Z,2.33
2023-01-01T12:22:19.560Z,2.43
2023-01-01T12:24:48.326Z,2.27
2023-01-01T12:27:27.289Z,2.80
2023-01-01T12:30:08.863Z,2.70
2023-01-01T12:32:44.417Z,2.60
2023-01-01T12:35:48.274Z,2.50
2023-01-01T12:38:37.360Z,2.23
2023-01-01T12:41:31.540Z,2.37
2023-01-01T12:44:01.360Z,2.67
2023-01-01T12:46:52.827Z,2.67
2023-01-01T12:49:34.883Z,2.90
2023-01-01T12:52:37.846Z,2.50
2023-01-01T12:55:26.335Z,2.80
2023-01-01T12:58:04.798Z,2.67
2023-01-01T13:00:32.348Z,3.13
2023-01-01T13:03:14.532Z,3.07
2023-01-01T13:05:44.300Z,3.03
2023-01-01T13:08:10.924Z,2.93
2023-01-01T13:10:44.509Z,2.80
2023-01-01T13:13:13.628Z,2.97
2023-01-01T13:15:44.041Z,2.77
2023-01-01T13:18:13.757Z,2.80
2023-01-01T13:21:18.348Z,2.77
2023-01-01T13:23:45.702Z,3.27
2023-01-01T13:26:18.535Z,12.00
2023-01-01T13:28:57.771Z,5.73
2023-01-01T13:31:39.894Z,3.20
2023-01-01T13:34:31.372Z,3.07
2023-01-01T13:37:10.163Z,3.93
2023-01-01T13:39:57.782Z,2.87
2023-01-01T13:43:04.259Z,2.33
2023-01-01T13:46:10.894Z,2.63
2023-01-01T13:48:36.801Z,2.83
2023-01-01T13:51:40.161Z,2.80
2023-01-01T13:54:10.919Z,2.80
2023-01-01T13:56:52.810Z,2.90
2023-01-01T13:59:42.140Z,2.70
2023-01-01T14:02:30.310Z,2.83
2023-01-01T14:05:17.431Z,3.53
2023-01-01T14:07:51.151Z,3.10
2023-01-01T14:10:33.485Z,2.73
2023-01-01T14:13:06.235Z,2.83
2023-01-01T14:15:38.540Z,2.50
2023-01-01T14:18:11.285Z,2.47
2023-01-01T14:20:49.265Z,3.07
2023-01-01T14:23:27.071Z,2.77
2023-01-01T14:25:54.027Z,2.20
2023-01-01T14:28:32.359Z,2.40
2023-01-01T14:31:20.844Z,2.40
2023-01-01T14:33:47.832Z,2.60
2023-01-01T14:36:20.395Z,2.47
2023-01-01T14:38:49.654Z,2.63
2023-01-01T14:41:35.552Z,2.60
2023-01-01T14:44:17.610Z,2.77
2023-01-01T14:46:47.198Z,2.70
2023-01-01T14:49:33.576Z,2.67
2023-01-01T14:52:22.241Z,2.83
2023-01-01T14:54:49.410Z,2.63
2023-01-01T14:57:36.273Z,2.87
2023-01-01T15:00:14.725Z,2.40
2023-01-01T15:02:41.384Z,3.03
2023-01-01T15:05:33.296Z,2.80
2023-01-01T15:08:04.734Z,8.13
2023-01-01T15:10:34.437Z,5.40
2023-01-01T15:13:04.153Z,6.73
2023-01-01T15:15:43.799Z,2.57
2023-01-01T15:18:47.980Z,3.50
2023-01-01T15:21:34.509Z,3.57
2023-01-01T15:24:22.300Z,2.50
2023-01-01T15:26:59.189Z,3.23
2023-01-01T15:29:33.384Z,3.97
2023-01-01T15:32:02.883Z,3.13
2023-01-01T15:34:32.621Z,3.27
2023-01-01T15:37:10.086Z,3.07
2023-01-01T15:39:50.468Z,3.27
2023-01-01T15:42:38.149Z,3.20
2023-01-01T15:45:22.426Z,3.33
2023-01-01T15:47:51.059Z,3.63
2023-01-01T15:50:30.812Z,3.00
2023-01-01T15:53:11.321Z,2.50
2023-01-01T15:55:44.345Z,3.03
2023-01-01T15:58:22.851Z,3.10
2023-01-01T16:00:59.426Z,3.10
2023-01-01T16:03:29.340Z,2.80
2023-01-01T16:05:56.506Z,3.07
2023-01-01T16:08:24.034Z,2.90
2023-01-01T16:10:51.766Z,2.83
2023-01-01T16:13:19.021Z,2.83
2023-01-01T16:16:03.507Z,2.93
2023-01-01T16:18:33.465Z,3.47
2023-01-01T16:21:01.609Z,3.20
2023-01-01T16:23:28.603Z,3.27
2023-01-01T16:25:55.242Z,3.27
2023-01-01T16:28:21.880Z,3.10
2023-01-01T16:30:48.649Z,3.33
2023-01-01T16:33:20.295Z,3.43
2023-01-01T16:35:46.950Z,3.70
2023-01-01T16:38:13.719Z,2.87
2023-01-01T16:40:40.317Z,3.57
2023-01-01T16:43:15.181Z,4.60
2023-01-01T16:45:41.864Z,4.37
2023-01-01T16:48:08.546Z,4.17
2023-01-01T16:50:35.261Z,4.33
2023-01-01T16:53:01.971Z,3.93
2023-01-01T16:55:28.583Z,3.93
2023-01-01T16:58:13.902Z,3.40
2023-01-01T17:00:41.815Z,3.57
2023-01-01T17:03:09.724Z,3.70
2023-01-01T17:05:43.631Z,3.60
2023-01-01T17:08:11.120Z,3.77
2023-01-01T17:10:37.667Z,4.73
2023-01-01T17:13:04.264Z,5.67
2023-01-01T17:15:32.492Z,5.00
2023-01-01T17:17:59.813Z,5.33
2023-01-01T17:20:26.992Z,4.93
2023-01-01T17:22:53.936Z,4.83
2023-01-01T17:25:20.835Z,5.53
2023-01-01T17:27:47.485Z,6.07
2023-01-01T17:30:15.182Z,5.17
2023-01-01T17:32:41.794Z,5.00
2023-01-01T17:35:08.808Z,5.33
2023-01-01T17:37:35.472Z,5.33
2023-01-01T17:40:02.017Z,5.40
2023-01-01T17:42:29.152Z,5.07
2023-01-01T17:44:55.870Z,4.63
2023-01-01T17:47:25.523Z,6.00
2023-01-01T17:49:55.912Z,4.83
2023-01-01T17:52:22.518Z,6.27
2023-01-01T17:54:49.143Z,6.03
2023-01-01T17:57:15.860Z,4.80
2023-01-01T17:59:42.525Z,4.10
2023-01-01T18:02:13.137Z,5.17
2023-01-01T18:04:40.487Z,5.00
2023-01-01T18:07:07.045Z,5.20
2023-01-01T18:09:33.758Z,5.13
2023-01-01T18:12:00.333Z,6.23
2023-01-01T18:14:27.147Z,5.47
2023-01-01T18:16:53.684Z,5.80
2023-01-01T18:19:20.841Z,5.63
2023-01-01T18:21:47.583Z,5.40
2023-01-01T18:24:15.820Z,5.67
2023-01-01T18:26:43.158Z,4.77
2023-01-01T18:29:09.949Z,4.30
2023-01-01T18:31:36.632Z,5.10
2023-01-01T18:34:04.409Z,4.37
2023-01-01T18:36:34.037Z,5.30
2023-01-01T18:39:16.380Z,4.37
2023-01-01T18:42:06.032Z,4.70
2023-01-01T18:44:33.778Z,4.93
2023-01-01T18:47:06.695Z,4.30
2023-01-01T18:49:35.538Z,4.37
2023-01-01T18:52:07.870Z,4.00
2023-01-01T18:54:35.545Z,3.67
2023-01-01T18:57:13.429Z,4.20
2023-01-01T18:59:40.233Z,4.37
2023-01-01T19:02:49.317Z,4.10
2023-01-01T19:05:24.280Z,3.83
2023-01-01T19:08:11.291Z,4.13
2023-01-01T19:10:45.081Z,3.83
2023-01-01T19:13:24.797Z,3.50
2023-01-01T19:15:57.532Z,4.23
2023-01-01T19:18:29.130Z,3.50
2023-01-01T19:21:02.793Z,3.70
2023-01-01T19:23:30.608Z,3.73
2023-01-01T19:26:02.670Z,4.20
2023-01-01T19:28:34.944Z,3.57
2023-01-01T19:31:03.478Z,3.93
2023-01-01T19:33:30.534Z,4.00
2023-01-01T19:35:58.075Z,3.67
2023-01-01T19:38:24.759Z,4.27
2023-01-01T19:40:51.447Z,6.77
2023-01-01T19:43:18.293Z,5.53
2023-01-01T19:45:44.915Z,5.17
2023-01-01T19:48:11.628Z,5.03
2023-01-01T19:50:38.257Z,3.87
2023-01-01T19:53:04.856Z,3.27
2023-01-01T19:55:31.376Z,3.57
2023-01-01T19:57:58.251Z,2.80
2023-01-01T20:00:27.971Z,3.20
2023-01-01T20:02:55.711Z,3.60
2023-01-01T20:05:23.068Z,2.97
2023-01-01T20:07:49.947Z,3.17
2023-01-01T20:10:17.044Z,3.40
2023-01-01T20:12:45.624Z,3.20
2023-01-01T20:15:15.533Z,3.17
2023-01-01T20:17:42.572Z,4.80
2023-01-01T20:20:10.930Z,4.23
2023-01-01T20:22:37.739Z,6.90
2023-01-01T20:25:04.898Z,7.20
2023-01-01T20:27:31.747Z,7.70
2023-01-01T20:29:58.387Z,9.67
2023-01-01T20:32:26.189Z,14.70
2023-01-01T20:34:53.381Z,16.00
2023-01-01T20:37:38.791Z,12.50
2023-01-01T20:40:08.040Z,8.63
2023-01-01T20:42:36.620Z,5.83
2023-01-01T20:45:07.577Z,6.20
2023-01-01T20:47:34.573Z,5.17
2023-01-01T20:50:01.156Z,8.40
2023-01-01T20:52:27.769Z,30.87
2023-01-01T20:54:54.560Z,21.07
2023-01-01T20:57:21.079Z,17.43
2023-01-01T20:59:47.748Z,17.23
2023-01-01T21:02:14.559Z,21.07
2023-01-01T21:04:41.338Z,13.30
2023-01-01T21:07:09.816Z,8.13
2023-01-01T21:09:37.701Z,5.30
2023-01-01T21:12:04.615Z,4.50
2023-01-01T21:14:31.607Z,3.77
2023-01-01T21:16:58.467Z,3.27
2023-01-01T21:19:27.266Z,3.70
2023-01-01T21:21:58.535Z,3.20
2023-01-01T21:24:32.836Z,3.00
2023-01-01T21:27:23.385Z,3.13
2023-01-01T21:29:52.770Z,3.07
2023-01-01T21:32:21.527Z,3.30
2023-01-01T21:34:50.662Z,2.77
2023-01-01T21:37:50.757Z,3.17
2023-01-01T21:40:29.579Z,2.90
2023-01-01T21:43:06.769Z,3.13
2023-01-01T21:45:41.315Z,3.10
2023-01-01T21:48:14.072Z,3.10
2023-01-01T21:50:42.920Z,2.60
2023-01-01T21:53:16.803Z,3.07
2023-01-01T21:55:53.968Z,2.63
2023-01-01T21:58:45.179Z,3.23
2023-01-01T22:01:47.121Z,2.60
2023-01-01T22:04:22.559Z,2.87
2023-01-01T22:06:55.974Z,3.10
2023-01-01T22:09:31.727Z,3.20
2023-01-01T22:12:17.319Z,3.53
2023-01-01T22:14:48.423Z,3.07
2023-01-01T22:17:21.809Z,3.00
2023-01-01T22:19:48.969Z,3.70
2023-01-01T22:22:18.632Z,3.27
2023-01-01T22:24:52.136Z,3.60
2023-01-01T22:27:30.203Z,3.40
2023-01-01T22:30:19.237Z,2.90
2023-01-01T22:32:59.316Z,3.10
2023-01-01T22:35:32.198Z,3.07
2023-01-01T22:38:06.713Z,2.77
2023-01-01T22:40:38.972Z,3.03
2023-01-01T22:43:08.349Z,3.10
2023-01-01T22:45:38.361Z,2.97
2023-01-01T22:48:07.496Z,3.07
2023-01-01T22:50:34.551Z,2.73
2023-01-01T22:53:01.191Z,3.17
2023-01-01T22:55:27.901Z,3.50
2023-01-01T22:57:54.472Z,3.77
2023-01-01T23:00:21.454Z,2.80
2023-01-01T23:02:48.100Z,3.50
2023-01-01T23:05:14.722Z,2.93
2023-01-01T23:07:42.874Z,3.00
2023-01-01T23:10:13.836Z,3.20
2023-01-01T23:12:41.017Z,2.53
2023-01-01T23:15:26.947Z,3.17
2023-01-01T23:17:53.718Z,3.00
2023-01-01T23:20:20.776Z,2.73
2023-01-01T23:22:51.658Z,3.03
2023-01-01T23:25:20.405Z,2.80
2023-01-01T23:27:49.296Z,2.90
2023-01-01T23:30:16.305Z,2.93
2023-01-01T23:32:43.061Z,3.27
2023-01-01T23:35:10.642Z,3.13
2023-01-01T23:37:38.185Z,3.27
2023-01-01T23:40:05.329Z,3.23
2023-01-01T23:42:31.985Z,3.17
2023-01-01T23:44:58.705Z,2.90
2023-01-01T23:47:25.276Z,3.07
2023-01-01T23:49:51.914Z,3.00
2023-01-01T23:52:18.604Z,2.53
2023-01-01T23:54:45.133Z,2.97
2023-01-01T23:57:11.692Z,2.83
2023-01-01T23:59:38.272Z,3.67
